Time;durP1;ratioP1;P1;durP2;ratioP2;P2;SDS_P1;SDS_P2;PMS_P1;PMS_P2;Temp;Humidity;BMP_temperature;BMP_pressure;BME280_temperature;BME280_humidity;BME280_pressure;Samples;Min_cycle;Max_cycle;Signal;HPM_P1;HPM_P2
2022/05/04 00:00:33;;;;;;;0.80;0.32;;;;;;;18.24;45.27;101838.66;4951825;29;20055;-67
2022/05/04 00:03:01;;;;;;;0.32;0.20;;;;;;;18.25;42.63;101836.91;4951877;29;20055;-69
2022/05/04 00:05:31;;;;;;;0.60;0.20;;;;;;;18.18;43.65;101847.28;4951783;28;20134;-69
2022/05/04 00:07:59;;;;;;;0.95;0.30;;;;;;;18.26;42.30;101838.69;4951616;29;20086;-68
2022/05/04 00:10:30;;;;;;;2.58;0.40;;;;;;;18.27;42.69;101827.34;4958266;28;20051;-66
2022/05/04 00:12:58;;;;;;;0.40;0.20;;;;;;;18.35;42.01;101823.09;4970885;28;20134;-67
2022/05/04 00:15:27;;;;;;;1.33;0.20;;;;;;;18.46;42.79;101820.59;4970585;28;20614;-67
2022/05/04 00:17:56;;;;;;;0.32;0.28;;;;;;;18.50;43.90;101823.28;4973404;28;20053;-68
2022/05/04 00:20:24;;;;;;;1.60;0.68;;;;;;;18.60;43.50;101822.56;4981549;28;20054;-68
2022/05/04 00:22:53;;;;;;;2.97;0.60;;;;;;;18.55;42.68;101816.38;4990605;28;20112;-67
2022/05/04 00:25:21;;;;;;;0.65;0.30;;;;;;;18.51;42.09;101808.44;4990598;28;20159;-68
2022/05/04 00:27:51;;;;;;;5.97;0.70;;;;;;;18.43;42.98;101808.34;4990040;28;20108;-68
2022/05/04 00:30:20;;;;;;;0.80;0.40;;;;;;;18.52;42.35;101803.22;4990294;28;20053;-66
2022/05/04 00:32:48;;;;;;;1.80;0.47;;;;;;;18.70;41.68;101806.97;4990233;28;20488;-66
2022/05/04 00:35:17;;;;;;;1.30;0.47;;;;;;;18.67;42.42;101812.16;4990282;28;20050;-67
2022/05/04 00:37:45;;;;;;;0.90;0.28;;;;;;;18.70;45.13;101801.72;4989718;28;20046;-67
2022/05/04 00:40:14;;;;;;;0.95;0.20;;;;;;;18.72;44.05;101798.25;4989711;28;20555;-68
2022/05/04 00:42:43;;;;;;;1.58;0.30;;;;;;;18.59;43.21;101799.81;4989401;28;20137;-68
2022/05/04 00:45:13;;;;;;;1.23;0.20;;;;;;;18.46;43.37;101795.28;4970921;28;20563;-67
2022/05/04 00:47:54;;;;;;;0.30;0.30;;;;;;;18.33;44.50;101793.38;4961845;28;20063;-67
2022/05/04 00:50:23;;;;;;;0.38;0.30;;;;;;;18.18;44.51;101794.88;4951342;28;20111;-68
2022/05/04 00:52:52;;;;;;;1.50;0.40;;;;;;;18.01;45.26;101796.38;4950784;29;20639;-67
2022/05/04 00:55:23;;;;;;;0.90;0.30;;;;;;;17.90;45.56;101798.84;4950223;29;20130;-67
2022/05/04 01:00:38;;;;;;;0.95;0.20;;;;;;;17.75;46.71;101793.31;4950992;29;20050;-67
2022/05/04 01:03:07;;;;;;;0.55;0.30;;;;;;;17.70;49.93;101789.75;4950898;29;20047;-67
2022/05/04 01:05:35;;;;;;;0.32;0.20;;;;;;;17.62;48.26;101791.38;4950234;29;20130;-67
2022/05/04 01:08:04;;;;;;;3.33;0.30;;;;;;;17.53;46.23;101781.59;4950413;29;20150;-66
2022/05/04 01:10:32;;;;;;;0.30;0.20;;;;;;;17.51;48.44;101778.09;4950772;29;20118;-67
2022/05/04 01:13:01;;;;;;;1.75;0.30;;;;;;;17.43;45.64;101775.34;4953608;28;20102;-66
2022/05/04 01:15:29;;;;;;;0.85;0.32;;;;;;;17.41;46.44;101776.16;4946596;29;20093;-67
2022/05/04 01:17:59;;;;;;;0.20;0.20;;;;;;;17.40;47.23;101774.41;4950996;29;20110;-67
2022/05/04 01:20:28;;;;;;;0.93;0.30;;;;;;;17.38;46.04;101774.34;4949529;28;20130;-66
2022/05/04 01:22:58;;;;;;;0.28;0.25;;;;;;;17.33;47.70;101768.16;4939576;29;20501;-66
2022/05/04 01:25:26;;;;;;;0.30;0.28;;;;;;;17.35;48.02;101762.09;4950758;29;20118;-67
2022/05/04 01:27:55;;;;;;;0.52;0.20;;;;;;;17.37;48.50;101763.03;4950505;29;20047;-67
2022/05/04 01:30:24;;;;;;;0.88;0.30;;;;;;;17.35;48.29;101767.34;4950373;28;20532;-67
2022/05/04 01:32:52;;;;;;;0.45;0.25;;;;;;;17.30;48.58;101757.66;4949956;29;20110;-69
2022/05/04 01:35:21;;;;;;;0.38;0.35;;;;;;;17.27;50.85;101757.59;4950333;29;20113;-69
2022/05/04 01:37:49;;;;;;;0.38;0.25;;;;;;;17.18;50.26;101760.94;4949866;29;20055;-68
2022/05/04 01:40:19;;;;;;;1.30;0.45;;;;;;;17.08;49.92;101757.25;4950601;29;20551;-66
2022/05/04 01:42:48;;;;;;;0.82;0.30;;;;;;;17.00;50.46;101752.75;4949925;29;20059;-67
2022/05/04 01:45:16;;;;;;;1.00;0.50;;;;;;;16.98;52.65;101749.22;4950687;29;20047;-67
2022/05/04 01:47:49;;;;;;;1.50;0.40;;;;;;;16.92;49.32;101753.47;4951075;28;20497;-66
2022/05/04 01:50:18;;;;;;;0.22;0.20;;;;;;;16.89;51.44;101755.16;4950326;29;20053;-66
2022/05/04 01:52:47;;;;;;;0.75;0.55;;;;;;;16.86;50.17;101750.75;4949370;28;20051;-67
2022/05/04 01:55:19;;;;;;;0.50;0.40;;;;;;;16.76;49.00;101747.00;4950039;29;20565;-67
2022/05/04 01:57:47;;;;;;;0.70;0.50;;;;;;;16.69;49.27;101746.88;4950175;29;20620;-67
2022/05/04 02:00:16;;;;;;;0.38;0.30;;;;;;;16.63;49.16;101738.91;4950424;29;20078;-66
2022/05/04 02:02:45;;;;;;;2.13;0.47;;;;;;;16.55;49.62;101734.41;4949502;29;20137;-67
2022/05/04 02:05:14;;;;;;;0.60;0.30;;;;;;;16.54;53.14;101737.88;4950364;29;20052;-67
2022/05/04 02:07:42;;;;;;;0.55;0.32;;;;;;;16.52;51.18;101734.34;4952028;29;20075;-67
2022/05/04 02:10:12;;;;;;;2.28;0.50;;;;;;;16.54;53.09;101732.66;4950765;29;20654;-67
2022/05/04 02:12:43;;;;;;;1.95;0.52;;;;;;;16.54;52.44;101727.44;4949474;29;20142;-66
2022/05/04 02:15:12;;;;;;;1.55;0.50;;;;;;;16.50;53.95;101724.72;4950269;29;20421;-67
2022/05/04 02:17:41;;;;;;;0.68;0.40;;;;;;;16.47;53.60;101730.78;4949441;29;20129;-67
2022/05/04 02:20:11;;;;;;;0.55;0.40;;;;;;;16.42;55.27;101727.16;4949407;29;20090;-67
2022/05/04 02:22:39;;;;;;;1.95;0.50;;;;;;;16.36;54.23;101723.56;4949603;29;20131;-67
2022/05/04 02:25:09;;;;;;;2.42;0.47;;;;;;;16.31;53.72;101724.34;4950114;29;20051;-67
2022/05/04 02:27:37;;;;;;;1.55;0.30;;;;;;;16.33;54.49;101725.25;4949369;29;20158;-67
2022/05/04 02:30:09;;;;;;;0.93;0.30;;;;;;;16.35;54.46;101725.28;4950228;29;20083;-67
2022/05/04 02:32:37;;;;;;;0.60;0.40;;;;;;;16.31;54.10;101719.13;4949827;29;20121;-66
2022/05/04 02:37:57;;;;;;;1.10;0.40;;;;;;;16.23;53.04;101728.50;4950378;29;20066;-67
2022/05/04 02:40:26;;;;;;;0.65;0.30;;;;;;;16.17;54.20;101731.00;4949540;29;20154;-67
2022/05/04 02:42:55;;;;;;;1.67;0.43;;;;;;;16.17;54.09;101737.94;4950942;28;20274;-67
2022/05/04 02:45:25;;;;;;;1.80;0.40;;;;;;;16.14;53.74;101730.91;4952845;29;20102;-67
2022/05/04 02:47:53;;;;;;;0.60;0.40;;;;;;;16.09;54.21;101724.72;4959904;28;20114;-67
2022/05/04 02:50:21;;;;;;;0.75;0.45;;;;;;;16.04;54.23;101727.22;4972768;28;20055;-67
2022/05/04 02:52:50;;;;;;;0.50;0.30;;;;;;;15.96;51.98;101736.59;4972661;28;20081;-67
2022/05/04 02:55:19;;;;;;;1.10;0.32;;;;;;;15.89;55.15;101729.47;4972768;28;20051;-67
2022/05/04 02:57:47;;;;;;;1.02;0.20;;;;;;;15.83;55.42;101740.66;4972005;28;20126;-67
2022/05/04 03:00:16;;;;;;;0.45;0.30;;;;;;;15.79;53.85;101735.34;4973037;28;20054;-68
2022/05/04 03:02:47;;;;;;;1.45;0.40;;;;;;;15.78;54.44;101737.06;4974742;28;20098;-67
2022/05/04 03:05:16;;;;;;;1.10;0.30;;;;;;;15.74;54.62;101735.22;4973457;28;20062;-67
2022/05/04 03:07:45;;;;;;;0.40;0.30;;;;;;;15.70;55.63;101730.75;4971285;28;20097;-66
2022/05/04 03:10:14;;;;;;;3.00;0.45;;;;;;;15.70;54.63;101734.25;4977495;28;20531;-67
2022/05/04 03:12:43;;;;;;;0.90;0.38;;;;;;;15.68;54.69;101741.13;4991240;28;20050;-67
2022/05/04 03:15:12;;;;;;;1.95;0.65;;;;;;;15.66;54.42;101737.59;4991599;28;20153;-66
2022/05/04 03:17:41;;;;;;;1.00;0.30;;;;;;;15.64;55.27;101749.72;4991393;28;20058;-66
2022/05/04 03:20:13;;;;;;;0.30;0.30;;;;;;;15.61;56.79;101752.25;4991335;28;20132;-67
2022/05/04 03:22:42;;;;;;;1.10;0.35;;;;;;;15.58;55.02;101756.53;4990425;28;20058;-67
2022/05/04 03:25:11;;;;;;;1.95;0.38;;;;;;;15.55;55.21;101764.28;4991480;28;20484;-68
2022/05/04 03:27:39;;;;;;;1.88;0.50;;;;;;;15.50;55.77;101761.53;4990700;28;20081;-68
2022/05/04 03:30:09;;;;;;;2.05;0.35;;;;;;;15.46;55.66;101760.59;4990896;28;20125;-67
2022/05/04 03:32:37;;;;;;;1.92;0.70;;;;;;;15.41;55.50;101758.69;4991089;28;20105;-68
2022/05/04 03:35:06;;;;;;;2.33;1.00;;;;;;;15.36;55.83;101753.38;4991009;28;20109;-68
2022/05/04 03:37:36;;;;;;;3.72;1.15;;;;;;;15.32;55.42;101750.66;4990710;28;20046;-68
2022/05/04 03:40:05;;;;;;;1.45;0.63;;;;;;;15.22;60.47;101741.72;4991189;28;20063;-67
2022/05/04 03:42:34;;;;;;;3.95;1.40;;;;;;;15.22;57.59;101750.41;4990576;28;20058;-67
2022/05/04 03:45:02;;;;;;;1.95;1.10;;;;;;;15.18;55.15;101750.28;4991212;28;20133;-67
2022/05/04 03:47:31;;;;;;;2.72;1.10;;;;;;;15.10;56.82;101752.69;4974388;28;20051;-67
2022/05/04 03:49:59;;;;;;;2.35;0.98;;;;;;;15.03;56.32;101762.06;4952149;29;20494;-67
2022/05/04 03:52:28;;;;;;;2.95;0.95;;;;;;;14.98;56.03;101761.06;4951620;29;20055;-67
2022/05/04 03:54:58;;;;;;;2.00;0.65;;;;;;;14.95;55.93;101753.16;4951547;28;20082;-69
2022/05/04 03:57:26;;;;;;;1.58;0.60;;;;;;;14.93;56.11;101756.56;4954697;29;20053;-68
2022/05/04 03:59:55;;;;;;;1.92;0.63;;;;;;;14.88;56.69;101759.03;4952956;29;20078;-68
2022/05/04 04:02:23;;;;;;;2.47;0.93;;;;;;;14.80;56.37;101753.63;4951952;29;20051;-67
2022/05/04 04:04:51;;;;;;;4.15;1.05;;;;;;;14.75;56.01;101756.91;4951814;28;20126;-68
2022/05/04 04:07:20;;;;;;;2.03;1.02;;;;;;;14.72;56.79;101762.94;4951621;29;20465;-67
2022/05/04 04:09:48;;;;;;;1.58;0.80;;;;;;;14.69;57.43;101765.47;4951357;29;20437;-67
2022/05/04 04:12:18;;;;;;;4.22;0.90;;;;;;;14.63;57.67;101760.06;4951603;29;20051;-68
2022/05/04 04:14:47;;;;;;;3.80;0.90;;;;;;;14.59;58.26;101756.50;4952216;29;20055;-67
2022/05/04 04:17:15;;;;;;;2.20;1.17;;;;;;;14.53;57.31;101758.88;4951189;29;20055;-68
2022/05/04 04:19:44;;;;;;;7.13;1.38;;;;;;;14.46;59.27;101759.53;4951217;28;20138;-69
2022/05/04 04:22:11;;;;;;;2.70;0.90;;;;;;;14.39;58.99;101760.22;4951124;29;20564;-70
2022/05/04 04:24:39;;;;;;;3.05;0.77;;;;;;;14.32;58.59;101760.88;4951585;28;20082;-69
2022/05/04 04:27:08;;;;;;;3.15;0.88;;;;;;;14.25;57.97;101763.28;4951351;29;20043;-70
2022/05/04 04:29:38;;;;;;;2.25;0.85;;;;;;;14.19;57.17;101765.69;4951772;29;20126;-69
2022/05/04 04:32:07;;;;;;;2.47;0.90;;;;;;;14.14;57.97;101753.38;4951719;28;20055;-69
2022/05/04 04:34:36;;;;;;;1.92;0.63;;;;;;;14.09;56.21;101762.72;4951359;29;20059;-69
2022/05/04 04:37:05;;;;;;;3.10;1.02;;;;;;;14.02;56.54;101759.97;4951741;29;20106;-71
2022/05/04 04:39:33;;;;;;;2.25;0.75;;;;;;;13.94;56.20;101747.53;4950831;29;20058;-72
2022/05/04 04:42:02;;;;;;;8.40;0.98;;;;;;;13.88;56.51;101748.25;4951230;29;20051;-69
2022/05/04 04:44:30;;;;;;;3.00;0.80;;;;;;;13.84;57.02;101746.38;4951008;29;20047;-69
2022/05/04 04:47:00;;;;;;;2.35;0.85;;;;;;;13.80;57.45;101741.91;4953240;28;20150;-68
2022/05/04 04:49:29;;;;;;;7.32;1.40;;;;;;;13.77;57.41;101741.81;4951200;29;20134;-69
2022/05/04 04:51:57;;;;;;;3.83;0.85;;;;;;;13.74;57.87;101747.81;4952038;29;20051;-68
2022/05/04 04:54:26;;;;;;;8.35;1.05;;;;;;;13.70;59.04;101743.31;4953247;28;20110;-68
2022/05/04 04:56:54;;;;;;;2.72;0.95;;;;;;;13.66;58.71;101730.16;4951827;29;20051;-69
2022/05/04 04:59:22;;;;;;;5.18;1.30;;;;;;;13.60;58.96;101726.50;4951120;29;20055;-69
2022/05/04 05:01:51;;;;;;;4.07;1.35;;;;;;;13.55;58.49;101722.00;4950587;29;20047;-68
2022/05/04 05:04:21;;;;;;;4.18;0.90;;;;;;;13.45;58.15;101718.22;4950890;29;20063;-70
2022/05/04 05:06:49;;;;;;;3.20;1.13;;;;;;;13.46;59.67;101733.00;4950674;28;20066;-68
2022/05/04 05:09:18;;;;;;;4.30;0.90;;;;;;;13.40;58.81;101728.47;4950666;29;20110;-69
2022/05/04 05:11:46;;;;;;;1.42;0.82;;;;;;;13.32;58.29;101724.72;4950527;29;20485;-70
2022/05/04 05:17:00;;;;;;;6.05;0.90;;;;;;;13.21;58.31;101710.44;4950985;29;20079;-68
2022/05/04 05:19:30;;;;;;;5.72;1.20;;;;;;;13.18;58.79;101711.22;4950434;29;20413;-68
2022/05/04 05:21:58;;;;;;;4.97;1.35;;;;;;;13.11;59.34;101708.38;4950533;28;20139;-68
2022/05/04 05:24:27;;;;;;;1.58;0.60;;;;;;;13.06;60.02;101715.16;4950666;29;20051;-68
2022/05/04 05:26:55;;;;;;;4.93;0.82;;;;;;;13.00;60.34;101715.78;4950545;29;20509;-68
2022/05/04 05:29:24;;;;;;;2.83;0.75;;;;;;;12.95;60.08;101715.63;4950315;28;20086;-69
2022/05/04 05:31:52;;;;;;;3.40;1.38;;;;;;;12.91;59.23;101715.47;4950638;29;20094;-68
2022/05/04 05:34:21;;;;;;;4.40;1.20;;;;;;;12.87;60.54;101718.78;4950403;28;20090;-67
2022/05/04 05:36:51;;;;;;;5.03;0.98;;;;;;;12.79;60.77;101706.41;4950765;29;20055;-67
2022/05/04 05:39:19;;;;;;;7.32;1.00;;;;;;;12.74;62.32;101700.19;4950328;29;20059;-67
2022/05/04 05:41:47;;;;;;;7.40;1.15;;;;;;;12.70;62.07;101703.50;4950157;28;20581;-68
2022/05/04 05:44:16;;;;;;;5.63;1.08;;;;;;;12.65;62.44;101707.63;4950000;29;20055;-67
2022/05/04 05:46:44;;;;;;;5.60;1.10;;;;;;;12.61;62.33;101703.16;4952018;28;20054;-67
2022/05/04 05:49:13;;;;;;;5.75;1.10;;;;;;;12.55;63.88;101700.31;4954203;29;20089;-68
2022/05/04 05:51:42;;;;;;;6.13;1.23;;;;;;;12.50;62.83;101691.50;4950443;29;20454;-69
2022/05/04 05:54:12;;;;;;;1.27;0.80;;;;;;;12.47;62.11;101696.59;4950558;29;20562;-69
2022/05/04 05:56:41;;;;;;;10.65;1.38;;;;;;;12.46;62.17;101692.22;4950078;29;20480;-68
2022/05/04 05:59:09;;;;;;;2.63;1.33;;;;;;;12.43;63.50;101689.50;4950150;29;20051;-68
2022/05/04 06:01:37;;;;;;;7.32;1.30;;;;;;;12.41;63.59;101701.53;4949954;29;20698;-68
2022/05/04 06:04:06;;;;;;;5.13;1.27;;;;;;;12.34;64.37;101693.53;4949791;29;20051;-67
2022/05/04 06:06:35;;;;;;;2.88;0.77;;;;;;;12.30;63.34;101698.53;4949973;29;20678;-68
2022/05/04 06:09:03;;;;;;;5.20;0.93;;;;;;;12.28;64.42;101698.50;4949837;29;20043;-68
2022/05/04 06:11:34;;;;;;;2.88;0.93;;;;;;;12.24;63.66;101698.31;4949767;29;20047;-67
2022/05/04 06:14:02;;;;;;;2.78;1.15;;;;;;;12.22;63.04;101693.06;4950206;28;20046;-69
2022/05/04 06:16:31;;;;;;;3.63;0.90;;;;;;;12.20;63.11;101689.53;4950145;28;20043;-68
2022/05/04 06:18:59;;;;;;;3.03;1.13;;;;;;;12.20;63.88;101688.66;4953718;28;20545;-68
2022/05/04 06:21:28;;;;;;;3.25;0.80;;;;;;;12.13;63.74;101678.03;4953290;29;20075;-68
2022/05/04 06:23:56;;;;;;;4.50;1.30;;;;;;;12.10;63.97;101666.69;4953816;29;20450;-68
2022/05/04 06:26:24;;;;;;;2.25;0.75;;;;;;;12.08;63.32;101665.72;4953812;28;20090;-68
2022/05/04 06:28:54;;;;;;;1.60;0.90;;;;;;;12.05;63.17;101665.59;4954193;29;20449;-67
2022/05/04 06:34:08;;;;;;;3.90;1.05;;;;;;;12.00;63.79;101656.75;4953972;29;20054;-69
2022/05/04 06:36:37;;;;;;;4.38;0.88;;;;;;;11.97;64.15;101646.28;4953283;29;20051;-67
2022/05/04 06:39:05;;;;;;;2.03;1.10;;;;;;;11.93;64.57;101638.41;4953754;29;20106;-67
2022/05/04 06:41:34;;;;;;;3.22;1.27;;;;;;;11.88;64.22;101637.31;4953169;29;20049;-68
2022/05/04 06:44:04;;;;;;;2.53;0.70;;;;;;;11.83;64.02;101631.03;4953495;29;20078;-68
2022/05/04 06:46:33;;;;;;;4.05;1.13;;;;;;;11.80;63.88;101637.84;4956552;29;20106;-68
2022/05/04 06:49:01;;;;;;;2.53;0.70;;;;;;;11.77;64.13;101632.50;4956213;28;20110;-67
2022/05/04 06:51:30;;;;;;;4.40;1.00;;;;;;;11.72;65.02;101615.06;4953788;29;20059;-68
2022/05/04 06:53:58;;;;;;;2.90;0.88;;;;;;;11.67;65.14;101620.91;4953346;29;20047;-67
2022/05/04 06:56:27;;;;;;;9.75;1.27;;;;;;;11.64;65.19;101620.78;4953020;29;20130;-67
2022/05/04 06:58:55;;;;;;;7.15;1.40;;;;;;;11.60;65.34;101613.72;4953473;29;20109;-69
2022/05/04 07:01:27;;;;;;;3.45;1.05;;;;;;;11.50;64.16;101603.00;4952972;29;20051;-69
2022/05/04 07:03:56;;;;;;;3.17;1.13;;;;;;;11.56;64.87;101606.63;4953311;29;20058;-67
2022/05/04 07:06:25;;;;;;;4.07;0.80;;;;;;;11.52;64.74;101606.53;4952704;29;20043;-68
2022/05/04 07:08:53;;;;;;;13.40;1.77;;;;;;;11.50;64.16;101607.31;4953276;29;20051;-67
2022/05/04 07:11:22;;;;;;;3.92;1.10;;;;;;;11.48;64.71;101602.03;4952603;29;20071;-68
2022/05/04 07:13:50;;;;;;;4.93;1.33;;;;;;;11.48;64.80;101603.75;4952837;29;20137;-68
2022/05/04 07:16:18;;;;;;;4.22;1.35;;;;;;;11.47;64.43;101602.84;4953142;28;20489;-68
2022/05/04 07:18:48;;;;;;;9.45;2.70;;;;;;;11.46;64.75;101605.41;4952703;29;20051;-68
2022/05/04 07:21:17;;;;;;;6.32;1.15;;;;;;;11.45;64.87;101604.53;4952467;29;20142;-68
2022/05/04 07:23:45;;;;;;;4.07;0.93;;;;;;;11.44;65.71;101602.75;4952810;29;20430;-69
2022/05/04 07:26:14;;;;;;;4.85;0.98;;;;;;;11.44;66.98;101613.09;4952367;29;20055;-68
2022/05/04 07:28:42;;;;;;;3.45;1.35;;;;;;;11.42;66.51;101608.69;4952081;28;20063;-68
2022/05/04 07:31:10;;;;;;;4.10;1.17;;;;;;;11.35;66.56;101604.97;4953116;29;20130;-68
2022/05/04 07:33:39;;;;;;;6.88;1.20;;;;;;;11.22;65.81;101601.00;4952314;29;20134;-68
2022/05/04 07:36:09;;;;;;;13.95;1.33;;;;;;;11.22;66.71;101608.75;4952507;29;20055;-68
2022/05/04 07:38:38;;;;;;;2.38;0.85;;;;;;;11.20;66.73;101615.63;4952634;29;20085;-68
2022/05/04 07:43:52;;;;;;;5.68;0.80;;;;;;;11.17;67.23;101609.41;4955753;29;20522;-68
2022/05/04 07:46:21;;;;;;;4.72;1.30;;;;;;;11.14;67.18;101609.28;4952705;29;20054;-68
2022/05/04 07:48:49;;;;;;;5.90;1.00;;;;;;;11.11;66.76;101603.16;4983699;28;20117;-69
2022/05/04 07:51:19;;;;;;;5.82;0.90;;;;;;;11.06;66.75;101606.38;4991042;28;20520;-69
2022/05/04 07:53:47;;;;;;;3.58;0.98;;;;;;;11.02;66.65;101605.38;4990870;28;20564;-69
2022/05/04 07:56:16;;;;;;;5.68;0.80;;;;;;;10.94;66.87;101588.63;4990955;28;20050;-68
2022/05/04 07:58:44;;;;;;;4.88;0.88;;;;;;;10.97;67.40;101599.13;4991080;28;20062;-69
2022/05/04 08:06:45;;;;;;;3.80;0.75;;;;;;;10.87;66.48;101597.84;4990391;28;20623;-68
2022/05/04 08:09:14;;;;;;;4.78;1.23;;;;;;;10.84;66.90;101597.72;4990967;28;20502;-68
2022/05/04 08:11:43;;;;;;;4.95;1.20;;;;;;;10.80;67.21;101592.34;4990562;28;20522;-68
2022/05/04 08:14:12;;;;;;;5.93;0.80;;;;;;;10.76;67.65;101587.88;4990540;28;20104;-67
2022/05/04 08:16:40;;;;;;;8.02;0.95;;;;;;;10.68;69.07;101591.03;4990474;28;20054;-68
2022/05/04 08:19:09;;;;;;;4.13;0.93;;;;;;;10.65;70.08;101585.72;4990161;28;20104;-68
2022/05/04 08:21:38;;;;;;;6.10;1.10;;;;;;;10.65;70.87;101574.47;4990128;28;20575;-68
2022/05/04 08:24:09;;;;;;;6.07;2.22;;;;;;;10.63;71.08;101569.25;4990631;28;20090;-67
2022/05/04 08:26:38;;;;;;;3.65;1.25;;;;;;;10.63;70.78;101571.84;4990277;28;20046;-68
2022/05/04 08:29:07;;;;;;;3.22;1.30;;;;;;;10.62;70.05;101561.41;4990390;28;20685;-69
2022/05/04 08:31:36;;;;;;;4.53;1.33;;;;;;;10.62;70.40;101559.69;4990465;28;20092;-68
2022/05/04 08:34:04;;;;;;;2.20;1.00;;;;;;;10.61;70.46;101550.19;4990480;28;20050;-68
2022/05/04 08:36:33;;;;;;;2.65;0.75;;;;;;;10.61;69.70;101545.00;4989842;28;20105;-66
2022/05/04 08:39:01;;;;;;;3.13;0.80;;;;;;;10.58;70.08;101539.69;4990849;28;20053;-68
2022/05/04 08:41:42;;;;;;;2.58;0.93;;;;;;;10.58;69.53;101544.88;4992255;28;20046;-67
2022/05/04 08:44:12;;;;;;;4.20;1.17;;;;;;;10.57;69.63;101535.34;4990675;28;20504;-67
2022/05/04 08:46:42;;;;;;;4.68;0.90;;;;;;;10.54;69.79;101530.03;4990124;28;20054;-67
2022/05/04 08:49:20;;;;;;;2.65;0.85;;;;;;;10.53;69.83;101530.84;4989638;28;20086;-66
2022/05/04 08:51:49;;;;;;;9.25;1.58;;;;;;;10.53;69.26;101527.38;4989813;28;20050;-67
2022/05/04 08:54:18;;;;;;;4.88;0.90;;;;;;;10.46;67.77;101526.22;4990145;28;20523;-67
2022/05/04 08:56:48;;;;;;;2.95;0.73;;;;;;;10.53;70.10;101536.00;4988939;28;20050;-68
2022/05/04 08:59:17;;;;;;;5.57;1.08;;;;;;;10.52;71.04;101525.63;4989454;28;20046;-67
2022/05/04 09:01:46;;;;;;;4.95;1.00;;;;;;;10.44;70.34;101515.81;4989157;28;20739;-67
2022/05/04 09:04:14;;;;;;;6.53;1.02;;;;;;;10.50;70.75;101528.13;4989175;28;20054;-68
2022/05/04 09:06:44;;;;;;;4.97;1.20;;;;;;;10.48;71.10;101524.59;4988557;28;20089;-68
2022/05/04 09:09:13;;;;;;;8.40;1.02;;;;;;;10.47;71.79;101515.09;4989175;28;20065;-67
2022/05/04 09:11:44;;;;;;;5.85;1.45;;;;;;;10.49;72.68;101505.69;4988785;28;20635;-67
2022/05/04 09:14:15;;;;;;;2.45;1.13;;;;;;;10.48;72.22;101498.72;4989476;28;20132;-66
2022/05/04 09:16:44;;;;;;;7.85;1.23;;;;;;;10.47;70.75;101491.78;4989059;28;20058;-67
2022/05/04 09:19:14;;;;;;;1.17;0.63;;;;;;;10.45;71.06;101486.53;4989861;28;20096;-68
2022/05/04 09:21:45;;;;;;;3.45;0.88;;;;;;;10.47;70.20;101491.78;4989272;28;20141;-67
2022/05/04 09:24:16;;;;;;;1.05;0.40;;;;;;;10.47;69.81;101494.38;4989610;28;20133;-68
2022/05/04 09:26:46;;;;;;;4.60;1.02;;;;;;;10.46;69.82;101490.88;4989237;28;20047;-68
2022/05/04 09:29:16;;;;;;;3.25;1.05;;;;;;;10.44;69.80;101489.06;4989128;28;20098;-67
2022/05/04 09:31:49;;;;;;;2.95;0.80;;;;;;;10.43;69.55;101490.75;4989668;28;20128;-68
2022/05/04 09:34:17;;;;;;;2.35;0.80;;;;;;;10.43;69.54;101488.19;4988998;28;20105;-68
2022/05/04 09:45:13;;;;;;;3.13;1.00;;;;;;;10.42;69.90;101482.94;4989353;28;20112;-68
2022/05/04 09:47:49;;;;;;;5.93;0.93;;;;;;;10.42;69.65;101480.34;4981440;28;20090;-68
2022/05/04 09:50:25;;;;;;;1.40;0.80;;;;;;;10.41;69.65;101471.72;4950439;29;20093;-68
2022/05/04 09:52:54;;;;;;;4.60;1.25;;;;;;;10.43;70.22;101469.19;4949471;28;20418;-68
2022/05/04 09:55:25;;;;;;;4.45;0.95;;;;;;;10.37;70.32;101458.56;4950462;28;20054;-68
2022/05/04 09:57:55;;;;;;;4.93;1.08;;;;;;;10.41;70.07;101469.13;4950462;29;20055;-68
2022/05/04 10:00:27;;;;;;;1.73;0.70;;;;;;;10.39;69.77;101467.28;4949845;29;20570;-68
2022/05/04 10:02:57;;;;;;;5.63;1.33;;;;;;;10.37;69.81;101453.41;4943551;29;20082;-68
2022/05/04 10:05:26;;;;;;;4.88;1.17;;;;;;;10.33;69.80;101457.59;4950103;29;20357;-68
2022/05/04 10:07:54;;;;;;;6.60;1.17;;;;;;;10.31;70.35;101458.31;4949718;29;20130;-67
2022/05/04 10:10:24;;;;;;;3.30;1.00;;;;;;;10.29;70.78;101449.63;4954805;28;20050;-68
2022/05/04 10:12:53;;;;;;;1.42;0.60;;;;;;;10.22;71.02;101443.28;4969440;28;20097;-68
2022/05/04 10:15:23;;;;;;;7.47;0.98;;;;;;;10.14;72.08;101440.34;4955047;28;20134;-68
2022/05/04 10:17:56;;;;;;;5.97;0.90;;;;;;;10.11;73.39;101429.03;4950080;29;20043;-68
2022/05/04 10:20:31;;;;;;;2.60;0.65;;;;;;;10.08;73.09;101434.94;4949856;29;20051;-68
2022/05/04 10:23:04;;;;;;;4.38;1.10;;;;;;;10.07;72.42;101434.03;4942810;28;20040;-68
2022/05/04 10:25:35;;;;;;;3.30;0.80;;;;;;;10.07;73.28;101425.41;4949563;28;20055;-67
2022/05/04 10:28:08;;;;;;;2.53;0.52;;;;;;;10.02;72.24;101417.47;4950038;29;20058;-67
2022/05/04 10:30:46;;;;;;;6.13;0.77;;;;;;;9.94;73.65;101416.28;4949892;29;20051;-67
2022/05/04 10:33:17;;;;;;;3.58;0.95;;;;;;;9.91;73.26;101412.66;4949788;28;20051;-68
2022/05/04 10:35:48;;;;;;;4.57;1.08;;;;;;;9.90;73.16;101414.38;4949908;29;20051;-67
2022/05/04 10:38:21;;;;;;;8.77;0.98;;;;;;;9.90;74.17;101416.94;4953431;29;20047;-67
2022/05/04 10:40:55;;;;;;;4.90;0.82;;;;;;;9.89;74.57;101411.69;4950560;28;20099;-68
2022/05/04 10:43:38;;;;;;;2.08;0.50;;;;;;;9.90;75.32;101416.06;4950043;29;20078;-68
2022/05/04 10:46:13;;;;;;;4.65;0.95;;;;;;;9.89;74.43;101422.03;4947905;29;20043;-67
2022/05/04 10:48:45;;;;;;;3.25;1.05;;;;;;;9.86;76.10;101418.50;4951757;28;20134;-68
2022/05/04 10:51:19;;;;;;;2.67;0.68;;;;;;;9.86;75.27;101410.75;4949872;29;20142;-68
2022/05/04 10:53:50;;;;;;;2.70;0.60;;;;;;;9.90;75.26;101408.31;4949612;29;20051;-68
2022/05/04 10:56:20;;;;;;;4.10;0.90;;;;;;;9.85;75.02;101395.19;4949821;29;20134;-67
2022/05/04 10:58:55;;;;;;;7.70;1.05;;;;;;;9.90;74.64;101398.84;4949914;29;20134;-67
2022/05/04 11:01:28;;;;;;;4.80;1.08;;;;;;;9.93;74.08;101398.09;4949400;29;20146;-67
2022/05/04 11:04:15;;;;;;;4.13;1.20;;;;;;;9.96;74.28;101391.34;4951192;28;20062;-68
2022/05/04 11:06:45;;;;;;;1.95;0.93;;;;;;;9.98;73.91;101384.53;4953172;29;20051;-68
2022/05/04 11:09:15;;;;;;;4.22;1.17;;;;;;;9.98;73.07;101386.25;4952855;29;20051;-68
2022/05/04 11:11:45;;;;;;;5.15;0.73;;;;;;;9.96;73.70;101387.88;4954240;28;20047;-68
2022/05/04 11:14:14;;;;;;;3.00;1.25;;;;;;;9.95;73.96;101391.28;4966963;28;20134;-68
2022/05/04 11:16:46;;;;;;;3.58;1.42;;;;;;;9.94;73.61;101395.59;4952542;29;20692;-68
2022/05/04 11:19:15;;;;;;;1.70;0.88;;;;;;;9.94;74.53;101389.50;4953272;29;20130;-68
2022/05/04 11:21:44;;;;;;;3.60;0.60;;;;;;;9.88;74.55;101379.81;4952366;29;20142;-68
2022/05/04 11:24:14;;;;;;;5.45;0.85;;;;;;;9.95;73.92;101387.00;4952876;29;20134;-68
2022/05/04 11:26:44;;;;;;;4.25;0.85;;;;;;;9.98;75.47;101388.81;4952269;29;20102;-68
2022/05/04 11:29:15;;;;;;;4.82;0.95;;;;;;;9.98;74.52;101381.06;4953140;29;20082;-67
2022/05/04 11:31:52;;;;;;;2.30;0.85;;;;;;;9.98;75.55;101381.06;4952366;29;20058;-68
2022/05/04 11:34:21;;;;;;;2.60;0.52;;;;;;;10.00;74.69;101376.84;4953490;29;20417;-68
2022/05/04 11:36:51;;;;;;;4.50;1.10;;;;;;;10.01;76.16;101373.44;4955101;29;20078;-68
2022/05/04 11:39:21;;;;;;;4.50;1.10;;;;;;;10.01;75.86;101368.25;4953353;29;20145;-68
2022/05/04 11:41:51;;;;;;;10.93;1.30;;;;;;;10.00;74.94;101363.91;4951986;29;20093;-68
2022/05/04 11:44:22;;;;;;;3.53;1.02;;;;;;;10.01;75.49;101365.66;4952017;29;20055;-68
2022/05/04 11:46:53;;;;;;;2.58;0.70;;;;;;;10.00;75.81;101363.91;4952460;29;20062;-68
2022/05/04 11:49:22;;;;;;;2.67;0.85;;;;;;;9.98;75.22;101370.72;4953955;28;20059;-68
2022/05/04 11:51:51;;;;;;;5.35;1.02;;;;;;;9.97;74.96;101358.63;4952413;29;20086;-68
2022/05/04 11:54:20;;;;;;;2.08;0.70;;;;;;;9.93;73.60;101348.97;4952514;29;20142;-68
2022/05/04 11:56:49;;;;;;;3.10;0.98;;;;;;;9.89;74.30;101352.25;4952049;29;20149;-68
2022/05/04 11:59:17;;;;;;;1.65;1.02;;;;;;;9.84;74.01;101342.59;4951921;29;20873;-67
2022/05/04 12:01:47;;;;;;;4.05;0.75;;;;;;;9.82;74.47;101341.66;4951820;29;20054;-68
2022/05/04 12:04:19;;;;;;;7.05;1.05;;;;;;;9.82;74.34;101335.59;4952411;29;20051;-68